Time;durP1;ratioP1;P1;durP2;ratioP2;P2;SDS_P1;SDS_P2;PMS_P1;PMS_P2;Temp;Humidity;BMP_temperature;BMP_pressure;BME280_temperature;BME280_humidity;BME280_pressure;Samples;Min_cycle;Max_cycle;Signal;HPM_P1;HPM_P2
2023/05/12 00:01:00;;;;;;;24.20;12.90;;;11.60;99.90;;;;;;5114357;28;20036;-82
2023/05/12 00:03:26;;;;;;;25.02;13.90;;;11.60;99.90;;;;;;5133268;28;20148;-83
2023/05/12 00:05:53;;;;;;;33.03;14.35;;;11.60;99.90;;;;;;5116638;28;20035;-82
2023/05/12 00:08:20;;;;;;;28.48;13.65;;;11.60;99.90;;;;;;5133117;28;20035;-83
2023/05/12 00:10:46;;;;;;;24.42;13.02;;;11.60;99.90;;;;;;5116498;28;20501;-82
2023/05/12 00:13:13;;;;;;;27.33;13.73;;;11.60;99.90;;;;;;5116304;28;20043;-82
2023/05/12 00:15:40;;;;;;;25.00;13.55;;;11.60;99.90;;;;;;5118582;28;20048;-82
2023/05/12 00:18:07;;;;;;;29.80;14.57;;;11.60;99.90;;;;;;5112913;28;20380;-83
2023/05/12 00:20:34;;;;;;;26.67;13.68;;;11.60;99.90;;;;;;5095988;28;20038;-82
2023/05/12 00:23:01;;;;;;;25.02;13.65;;;11.70;99.90;;;;;;5096357;28;20065;-83
2023/05/12 00:25:27;;;;;;;31.08;14.38;;;11.70;99.90;;;;;;5129174;28;20039;-82
2023/05/12 00:27:54;;;;;;;30.25;13.77;;;11.70;99.90;;;;;;5113014;28;20089;-82
2023/05/12 00:30:21;;;;;;;26.63;13.88;;;11.70;99.90;;;;;;5129519;28;20035;-82
2023/05/12 00:32:48;;;;;;;28.63;14.90;;;11.70;99.90;;;;;;5112871;28;20444;-83
2023/05/12 00:35:15;;;;;;;25.73;14.10;;;11.70;99.90;;;;;;5129449;28;20090;-82
2023/05/12 00:37:43;;;;;;;25.35;13.75;;;11.70;99.90;;;;;;5146492;28;20043;-83
2023/05/12 00:40:10;;;;;;;26.10;14.23;;;11.70;99.90;;;;;;5129360;28;20051;-83
2023/05/12 00:42:37;;;;;;;32.67;14.82;;;11.70;99.90;;;;;;5129181;28;20032;-83
2023/05/12 00:45:05;;;;;;;29.10;13.77;;;11.70;99.90;;;;;;5146616;28;20047;-82
2023/05/12 00:47:32;;;;;;;29.65;15.25;;;11.70;99.90;;;;;;5095486;28;20514;-83
2023/05/12 00:49:59;;;;;;;29.83;14.68;;;11.70;99.90;;;;;;5112803;28;20044;-82
2023/05/12 00:52:26;;;;;;;30.38;15.05;;;11.80;99.90;;;;;;5115855;28;20040;-83
2023/05/12 00:54:53;;;;;;;29.60;14.32;;;11.70;99.90;;;;;;5116167;28;20408;-83
2023/05/12 00:57:21;;;;;;;30.60;15.57;;;11.70;99.90;;;;;;5099477;28;20400;-83
2023/05/12 00:59:48;;;;;;;27.80;15.43;;;11.80;99.90;;;;;;5115728;28;20031;-83
2023/05/12 01:02:15;;;;;;;30.42;15.18;;;11.80;99.90;;;;;;5132931;28;20031;-83
2023/05/12 01:04:41;;;;;;;29.33;15.35;;;11.80;99.90;;;;;;5114017;27;20558;-82
2023/05/12 01:07:17;;;;;;;26.55;14.57;;;11.80;99.90;;;;;;5136472;27;20127;-82
2023/05/12 01:09:43;;;;;;;29.65;14.95;;;11.80;99.90;;;;;;5153226;27;20096;-82
2023/05/12 01:12:10;;;;;;;40.70;14.63;;;11.80;99.90;;;;;;5136324;27;20043;-83
2023/05/12 01:14:37;;;;;;;34.45;15.40;;;11.80;99.90;;;;;;5118958;27;20039;-83
2023/05/12 01:17:12;;;;;;;28.23;14.57;;;11.80;99.90;;;;;;5135932;27;20031;-83
2023/05/12 01:19:44;;;;;;;28.25;15.07;;;11.80;99.90;;;;;;5155400;27;20032;-82
2023/05/12 01:22:11;;;;;;;37.75;16.85;;;11.80;99.90;;;;;;5134429;27;20047;-83
2023/05/12 01:24:54;;;;;;;34.75;17.25;;;11.80;99.90;;;;;;5135945;27;20471;-83
2023/05/12 01:27:24;;;;;;;30.33;15.52;;;11.90;99.90;;;;;;5136442;27;20043;-83
2023/05/12 01:29:53;;;;;;;29.88;15.55;;;11.80;99.90;;;;;;5139561;28;20446;-83
2023/05/12 01:32:21;;;;;;;29.40;15.77;;;11.80;99.90;;;;;;5132375;28;20092;-83
2023/05/12 01:34:48;;;;;;;31.55;16.20;;;11.80;99.90;;;;;;5132277;28;20492;-83
2023/05/12 01:37:15;;;;;;;30.65;16.08;;;11.80;99.90;;;;;;5099256;28;20503;-83
2023/05/12 01:39:42;;;;;;;34.83;16.33;;;11.80;99.90;;;;;;5116614;28;20047;-83
2023/05/12 01:42:09;;;;;;;27.65;15.77;;;11.90;99.90;;;;;;5116633;27;20132;-84
2023/05/12 01:44:35;;;;;;;32.08;16.27;;;11.90;99.90;;;;;;5152431;27;20039;-83
2023/05/12 01:47:02;;;;;;;34.40;16.52;;;11.90;99.90;;;;;;5135645;27;20109;-83
2023/05/12 01:49:29;;;;;;;30.00;17.05;;;11.90;99.90;;;;;;5150174;27;20038;-83
2023/05/12 01:51:55;;;;;;;30.15;16.05;;;11.80;99.90;;;;;;5114886;28;20043;-83
2023/05/12 01:54:22;;;;;;;38.65;16.38;;;11.80;99.90;;;;;;5098298;28;20403;-83
2023/05/12 01:56:49;;;;;;;35.78;16.13;;;11.80;99.90;;;;;;5098345;28;20392;-84
2023/05/12 01:59:15;;;;;;;33.17;16.90;;;11.80;99.90;;;;;;5098615;28;20031;-83
2023/05/12 02:01:42;;;;;;;36.78;17.08;;;11.90;99.90;;;;;;5114217;28;20036;-84
2023/05/12 02:04:09;;;;;;;31.58;15.60;;;11.90;99.90;;;;;;5131820;28;20043;-84
2023/05/12 02:06:35;;;;;;;35.60;15.75;;;11.80;99.90;;;;;;5098321;28;20123;-84
2023/05/12 02:09:02;;;;;;;30.58;16.40;;;11.80;99.90;;;;;;5114714;28;20112;-83
2023/05/12 02:11:29;;;;;;;30.92;15.50;;;11.80;99.90;;;;;;5098116;28;20377;-83
2023/05/12 02:13:56;;;;;;;32.63;16.20;;;11.80;99.90;;;;;;5129189;27;20039;-84
2023/05/12 02:16:23;;;;;;;31.65;15.95;;;11.80;99.90;;;;;;5118682;27;20046;-83
2023/05/12 02:18:49;;;;;;;33.22;15.63;;;11.80;99.90;;;;;;5152077;27;20104;-83
2023/05/12 02:21:16;;;;;;;34.40;16.00;;;11.80;99.90;;;;;;5134921;27;20043;-83
2023/05/12 02:23:43;;;;;;;32.30;15.63;;;11.80;99.90;;;;;;5112424;28;20059;-84
2023/05/12 02:26:09;;;;;;;35.40;16.33;;;11.80;99.90;;;;;;5131723;28;20065;-83
2023/05/12 02:28:36;;;;;;;34.35;16.13;;;11.80;99.90;;;;;;5131783;28;20043;-83
2023/05/12 02:31:03;;;;;;;30.10;15.55;;;11.80;99.90;;;;;;5130884;28;20437;-83
2023/05/12 02:33:30;;;;;;;30.20;15.88;;;11.70;99.90;;;;;;5131096;28;20491;-83
2023/05/12 02:35:57;;;;;;;31.83;15.73;;;11.70;99.90;;;;;;5130720;28;20051;-83
2023/05/12 02:38:24;;;;;;;38.42;15.50;;;11.80;99.90;;;;;;5130861;28;20126;-83
2023/05/12 02:40:50;;;;;;;32.60;15.30;;;11.70;99.90;;;;;;5130574;28;20519;-83
2023/05/12 02:43:17;;;;;;;31.63;15.75;;;11.70;99.90;;;;;;5131708;27;20204;-83
2023/05/12 02:45:44;;;;;;;40.22;17.27;;;11.70;99.90;;;;;;5130863;28;20036;-83
2023/05/12 02:48:10;;;;;;;31.33;16.73;;;11.70;99.90;;;;;;5114275;28;20548;-83
2023/05/12 02:50:37;;;;;;;27.58;15.32;;;11.70;99.90;;;;;;5130947;28;20036;-83
2023/05/12 02:53:04;;;;;;;33.60;16.48;;;11.70;99.90;;;;;;5097023;28;20043;-83
2023/05/12 02:55:34;;;;;;;36.03;15.85;;;11.70;99.90;;;;;;5115105;28;20032;-83
2023/05/12 02:58:01;;;;;;;32.17;14.98;;;11.70;99.90;;;;;;5126720;28;20035;-83
2023/05/12 03:00:27;;;;;;;35.47;16.75;;;11.70;99.90;;;;;;5130779;28;20089;-83
2023/05/12 03:02:54;;;;;;;31.38;16.50;;;11.70;99.90;;;;;;5113529;28;20043;-83
2023/05/12 03:05:21;;;;;;;31.85;16.25;;;11.70;99.90;;;;;;5114024;28;20032;-83
2023/05/12 03:07:48;;;;;;;32.45;15.27;;;11.70;99.90;;;;;;5113604;28;20101;-83
2023/05/12 03:10:16;;;;;;;33.63;16.65;;;11.70;99.90;;;;;;5130284;28;20074;-83
2023/05/12 03:12:43;;;;;;;33.22;16.50;;;11.70;99.90;;;;;;5113500;28;20043;-83
2023/05/12 03:15:10;;;;;;;29.80;15.73;;;11.70;99.90;;;;;;5130100;28;20130;-83
2023/05/12 03:17:37;;;;;;;37.03;16.90;;;11.70;99.90;;;;;;5113750;28;20047;-83
2023/05/12 03:20:04;;;;;;;31.65;16.17;;;11.70;99.90;;;;;;5113214;28;20593;-83
2023/05/12 03:22:30;;;;;;;39.22;16.45;;;11.70;99.90;;;;;;5133151;27;20027;-83
2023/05/12 03:24:57;;;;;;;34.47;16.17;;;11.70;99.90;;;;;;5133372;27;20402;-84
2023/05/12 03:27:24;;;;;;;39.70;16.67;;;11.70;99.90;;;;;;5133890;27;20482;-84
2023/05/12 03:29:51;;;;;;;35.10;16.95;;;11.70;99.90;;;;;;5112450;28;20054;-84
2023/05/12 03:32:17;;;;;;;47.00;17.02;;;11.70;99.90;;;;;;5113303;28;20132;-83
2023/05/12 03:34:44;;;;;;;32.38;16.25;;;11.70;99.90;;;;;;5113097;28;20035;-83
2023/05/12 03:37:11;;;;;;;41.47;17.85;;;11.60;99.90;;;;;;5096140;28;20441;-83
2023/05/12 03:39:38;;;;;;;32.00;16.15;;;11.60;99.90;;;;;;5096767;28;20424;-84
2023/05/12 03:42:05;;;;;;;37.92;17.73;;;11.70;99.90;;;;;;5129815;28;20050;-84
2023/05/12 03:44:31;;;;;;;36.83;17.70;;;11.70;99.90;;;;;;5113154;28;20044;-83
2023/05/12 03:47:01;;;;;;;40.60;17.63;;;11.60;99.90;;;;;;5113158;28;20043;-83
2023/05/12 03:49:27;;;;;;;40.70;18.52;;;11.70;99.90;;;;;;5096890;28;20054;-83
2023/05/12 03:51:54;;;;;;;38.88;19.05;;;11.60;99.90;;;;;;5112975;27;20046;-83
2023/05/12 03:54:21;;;;;;;37.70;17.75;;;11.60;99.90;;;;;;5133135;27;20483;-83
2023/05/12 03:56:47;;;;;;;35.08;18.10;;;11.60;99.90;;;;;;5133226;28;20497;-83
2023/05/12 03:59:15;;;;;;;44.00;19.42;;;11.70;99.90;;;;;;5116177;28;20041;-83
2023/05/12 04:01:41;;;;;;;42.92;19.05;;;11.70;99.90;;;;;;5113223;28;20031;-83
2023/05/12 04:04:08;;;;;;;39.35;18.30;;;11.60;99.90;;;;;;5112563;28;20100;-83
2023/05/12 04:06:35;;;;;;;41.70;18.73;;;11.60;99.90;;;;;;5113193;28;20040;-83
2023/05/12 04:09:02;;;;;;;41.50;18.73;;;11.60;99.90;;;;;;5096116;28;20408;-83
2023/05/12 04:11:29;;;;;;;38.53;18.75;;;11.60;99.90;;;;;;5112779;28;20067;-83
2023/05/12 04:13:56;;;;;;;38.95;18.98;;;11.60;99.90;;;;;;5120611;28;20069;-84
2023/05/12 04:16:23;;;;;;;41.10;19.33;;;11.60;99.90;;;;;;5116445;28;20039;-83
2023/05/12 04:18:50;;;;;;;45.45;18.58;;;11.60;99.90;;;;;;5116203;28;20039;-83
2023/05/12 04:21:17;;;;;;;42.00;19.20;;;11.60;99.90;;;;;;5116237;28;20050;-83
2023/05/12 04:23:43;;;;;;;36.75;17.38;;;11.60;99.90;;;;;;5146478;28;20789;-83
2023/05/12 04:26:10;;;;;;;34.58;16.92;;;11.60;99.90;;;;;;5098389;28;20084;-83
2023/05/12 04:28:37;;;;;;;41.00;18.02;;;11.60;99.90;;;;;;5100209;28;20092;-83
2023/05/12 04:31:03;;;;;;;36.33;17.48;;;11.60;99.90;;;;;;5116497;28;20035;-83
2023/05/12 04:33:30;;;;;;;43.35;18.52;;;11.60;99.90;;;;;;5133676;28;20078;-83
2023/05/12 04:35:57;;;;;;;33.17;18.05;;;11.60;99.90;;;;;;5132658;28;20054;-84
2023/05/12 04:38:25;;;;;;;35.25;16.83;;;11.60;99.90;;;;;;5116671;28;20035;-83
2023/05/12 04:40:57;;;;;;;36.13;17.33;;;11.60;99.90;;;;;;5099833;28;20051;-83
2023/05/12 04:43:24;;;;;;;31.02;16.48;;;11.60;99.90;;;;;;5116221;28;20047;-83
2023/05/12 04:45:53;;;;;;;38.10;17.80;;;11.60;99.90;;;;;;5148849;27;20490;-83
2023/05/12 04:48:20;;;;;;;39.72;18.42;;;11.60;99.90;;;;;;5153833;27;20513;-83
2023/05/12 04:50:48;;;;;;;33.53;17.60;;;11.60;99.90;;;;;;5153503;27;20555;-83
2023/05/12 04:53:15;;;;;;;36.03;16.92;;;11.60;99.90;;;;;;5153269;27;20039;-83
2023/05/12 04:55:44;;;;;;;40.80;16.92;;;11.60;99.90;;;;;;5143793;28;20047;-82
2023/05/12 04:58:16;;;;;;;32.72;17.67;;;11.50;99.90;;;;;;5130616;27;20039;-83
2023/05/12 05:00:43;;;;;;;34.42;17.55;;;11.50;99.90;;;;;;5153613;27;20035;-83
2023/05/12 05:03:10;;;;;;;38.63;17.17;;;11.60;99.90;;;;;;5153357;27;20035;-83
2023/05/12 05:05:36;;;;;;;35.47;18.25;;;11.60;99.90;;;;;;5153367;27;20517;-83
2023/05/12 05:08:03;;;;;;;36.30;17.77;;;11.60;99.90;;;;;;5126132;28;20039;-83
2023/05/12 05:10:30;;;;;;;44.88;18.48;;;11.70;99.90;;;;;;5116016;28;20384;-83
2023/05/12 05:12:56;;;;;;;39.33;18.15;;;11.70;99.90;;;;;;5099273;28;20044;-83
2023/05/12 05:15:23;;;;;;;40.90;18.10;;;11.70;99.90;;;;;;5098775;28;20070;-83
2023/05/12 05:17:50;;;;;;;37.55;18.95;;;11.70;99.90;;;;;;5132588;28;20035;-83
2023/05/12 05:20:18;;;;;;;40.50;19.15;;;11.80;99.90;;;;;;5119815;27;20046;-84
2023/05/12 05:22:44;;;;;;;42.20;18.73;;;11.80;99.90;;;;;;5136182;27;20035;-83
2023/05/12 05:25:12;;;;;;;40.45;19.23;;;11.80;99.90;;;;;;5119102;27;20046;-83
2023/05/12 05:27:39;;;;;;;56.78;18.27;;;11.90;99.90;;;;;;5119599;27;20059;-83
2023/05/12 05:30:07;;;;;;;45.55;19.55;;;11.90;99.90;;;;;;5118580;27;20530;-83
2023/05/12 05:32:38;;;;;;;40.65;19.70;;;11.90;99.90;;;;;;5136416;27;20487;-83
2023/05/12 05:35:07;;;;;;;37.55;18.38;;;12.00;99.90;;;;;;5152688;27;20050;-84
2023/05/12 05:37:33;;;;;;;39.03;19.17;;;12.00;99.90;;;;;;5146750;28;20034;-83
2023/05/12 05:40:00;;;;;;;38.67;17.98;;;12.00;99.90;;;;;;5115366;28;20051;-83
2023/05/12 05:42:27;;;;;;;36.92;18.25;;;12.10;99.90;;;;;;5116725;27;20551;-83
2023/05/12 05:44:53;;;;;;;41.58;19.17;;;12.10;99.90;;;;;;5120257;27;20392;-83
2023/05/12 05:47:20;;;;;;;38.75;19.20;;;12.10;99.90;;;;;;5123870;27;20896;-84
2023/05/12 05:49:47;;;;;;;42.40;20.00;;;12.20;99.90;;;;;;5119359;27;20046;-84
2023/05/12 05:52:13;;;;;;;38.63;19.42;;;12.30;99.90;;;;;;5135364;27;20043;-84
2023/05/12 05:54:40;;;;;;;40.60;19.85;;;12.30;99.90;;;;;;5104410;28;20044;-83
2023/05/12 05:57:07;;;;;;;38.03;19.42;;;12.40;99.90;;;;;;5114168;28;20043;-83
2023/05/12 05:59:34;;;;;;;40.92;19.88;;;12.40;99.90;;;;;;5132049;28;20054;-83
2023/05/12 06:02:00;;;;;;;37.35;20.08;;;12.40;99.90;;;;;;5131821;28;20074;-83
2023/05/12 06:04:27;;;;;;;41.53;20.45;;;12.40;99.90;;;;;;5123106;28;20511;-83
2023/05/12 06:06:54;;;;;;;41.15;19.60;;;12.50;99.90;;;;;;5115073;28;20175;-84
2023/05/12 06:09:21;;;;;;;46.90;22.45;;;12.50;99.90;;;;;;5131433;28;20048;-84
2023/05/12 06:11:48;;;;;;;40.90;21.58;;;12.50;99.90;;;;;;5115414;28;20126;-83
2023/05/12 06:14:16;;;;;;;47.55;21.95;;;12.60;99.90;;;;;;5116995;27;20074;-83
2023/05/12 06:16:42;;;;;;;45.30;21.45;;;12.60;99.90;;;;;;5118428;27;20088;-84
2023/05/12 06:19:10;;;;;;;45.85;21.38;;;12.60;99.90;;;;;;5118501;27;20483;-84
2023/05/12 06:21:37;;;;;;;46.17;22.77;;;12.70;99.90;;;;;;5118600;27;20126;-84
2023/05/12 06:24:04;;;;;;;46.17;23.75;;;12.70;99.90;;;;;;5118559;27;20039;-84
2023/05/12 06:26:31;;;;;;;47.38;23.65;;;12.70;99.90;;;;;;5117851;27;20031;-83
2023/05/12 06:28:58;;;;;;;46.58;23.40;;;12.80;99.90;;;;;;5151650;27;20570;-84
2023/05/12 06:31:24;;;;;;;43.60;21.80;;;12.80;99.90;;;;;;5134875;27;20043;-84
2023/05/12 06:33:51;;;;;;;45.35;22.48;;;12.90;99.90;;;;;;5106945;28;20031;-84
2023/05/12 06:36:18;;;;;;;49.85;24.25;;;12.90;99.90;;;;;;5132323;27;20122;-84
2023/05/12 06:38:44;;;;;;;48.00;25.23;;;13.00;99.90;;;;;;5114365;27;20031;-84
2023/05/12 06:41:11;;;;;;;48.58;24.23;;;13.00;99.90;;;;;;5108146;28;20047;-84
2023/05/12 06:43:38;;;;;;;47.63;23.98;;;13.10;99.90;;;;;;5116345;27;20090;-84
2023/05/12 06:46:05;;;;;;;47.33;24.60;;;13.10;99.90;;;;;;5147487;27;20081;-84
2023/05/12 06:48:32;;;;;;;44.38;24.90;;;13.10;99.90;;;;;;5105372;28;20759;-84
2023/05/12 06:50:59;;;;;;;42.80;23.65;;;13.20;99.90;;;;;;5117594;27;20034;-84
2023/05/12 06:53:26;;;;;;;44.88;24.88;;;13.20;99.90;;;;;;5115092;28;20426;-84
2023/05/12 06:55:53;;;;;;;43.80;24.98;;;13.30;99.90;;;;;;5113867;28;20415;-84
2023/05/12 06:58:20;;;;;;;45.95;24.73;;;13.40;99.90;;;;;;5147688;28;20031;-85
2023/05/12 07:00:47;;;;;;;46.45;24.45;;;13.50;99.90;;;;;;5131052;28;20050;-84
2023/05/12 07:03:14;;;;;;;49.22;25.95;;;13.50;99.90;;;;;;5131022;28;20036;-84
2023/05/12 07:05:41;;;;;;;42.88;25.17;;;13.60;99.90;;;;;;5130700;28;20100;-84
2023/05/12 07:08:08;;;;;;;45.15;24.70;;;13.70;99.90;;;;;;5133181;27;20224;-84
2023/05/12 07:10:36;;;;;;;43.00;23.45;;;13.70;99.90;;;;;;5150786;27;20027;-84
2023/05/12 07:13:03;;;;;;;43.72;24.27;;;13.70;99.90;;;;;;5134379;27;20035;-84
2023/05/12 07:15:30;;;;;;;44.25;24.10;;;13.70;99.90;;;;;;5133708;27;20047;-84
2023/05/12 07:17:57;;;;;;;49.13;25.33;;;13.70;99.90;;;;;;5117188;27;20129;-84
2023/05/12 07:20:23;;;;;;;39.97;24.33;;;13.70;99.90;;;;;;5130098;28;20123;-85
2023/05/12 07:22:51;;;;;;;40.47;22.88;;;13.70;99.90;;;;;;5113372;28;20047;-85
2023/05/12 07:25:18;;;;;;;43.55;23.98;;;13.70;99.90;;;;;;5097455;28;20082;-84
2023/05/12 07:27:44;;;;;;;42.95;24.50;;;13.70;99.90;;;;;;5113340;28;20079;-84
2023/05/12 07:30:11;;;;;;;37.15;23.48;;;13.70;99.90;;;;;;5113797;28;20070;-85
2023/05/12 07:32:38;;;;;;;41.92;23.83;;;13.80;99.90;;;;;;5146499;27;20038;-86
2023/05/12 07:35:05;;;;;;;42.55;24.15;;;13.80;99.90;;;;;;5133019;27;20042;-85
2023/05/12 07:37:32;;;;;;;41.65;24.20;;;13.80;99.90;;;;;;5124184;27;20031;-85
2023/05/12 07:39:59;;;;;;;40.60;24.40;;;13.80;99.90;;;;;;5110603;28;20051;-85
2023/05/12 07:42:25;;;;;;;43.45;25.27;;;13.80;99.90;;;;;;5125714;28;20110;-85
2023/05/12 07:44:52;;;;;;;43.72;24.45;;;13.90;99.90;;;;;;5111305;28;20043;-84
2023/05/12 07:47:19;;;;;;;40.20;23.25;;;13.90;99.90;;;;;;5115755;28;20515;-85
2023/05/12 07:49:45;;;;;;;43.00;23.75;;;13.90;99.90;;;;;;5099080;28;20448;-82
2023/05/12 07:52:12;;;;;;;43.33;25.40;;;14.00;99.90;;;;;;5130387;28;20039;-84
2023/05/12 07:54:39;;;;;;;43.00;24.77;;;14.10;99.90;;;;;;5153506;27;20047;-84
2023/05/12 07:57:05;;;;;;;38.05;23.67;;;14.20;99.90;;;;;;5129437;28;20035;-82
2023/05/12 07:59:32;;;;;;;39.08;24.55;;;14.30;99.90;;;;;;5133677;28;20135;-82
2023/05/12 08:01:59;;;;;;;39.40;24.00;;;14.40;99.90;;;;;;5121919;28;20050;-81
2023/05/12 08:04:25;;;;;;;39.13;24.05;;;14.50;99.90;;;;;;5112355;28;20067;-81
2023/05/12 08:06:52;;;;;;;38.90;23.63;;;14.50;99.90;;;;;;5121258;28;20556;-82
2023/05/12 08:09:19;;;;;;;42.28;24.30;;;14.70;99.90;;;;;;5114317;28;20035;-82
2023/05/12 08:11:46;;;;;;;41.30;25.10;;;14.80;99.90;;;;;;5113740;28;20043;-81
2023/05/12 08:14:12;;;;;;;38.65;24.30;;;14.90;99.90;;;;;;5111596;28;20028;-81
2023/05/12 08:16:39;;;;;;;40.13;25.13;;;15.00;99.90;;;;;;5110043;28;21526;-81
2023/05/12 08:19:06;;;;;;;43.28;24.52;;;15.10;99.90;;;;;;5112592;28;20237;-84
2023/05/12 08:21:33;;;;;;;35.72;23.45;;;15.20;99.90;;;;;;5118438;28;20517;-84
2023/05/12 08:23:59;;;;;;;37.80;23.10;;;15.30;99.90;;;;;;5143931;28;20125;-84
2023/05/12 08:26:26;;;;;;;38.03;22.52;;;15.50;99.90;;;;;;5125286;28;20125;-84
2023/05/12 08:28:53;;;;;;;44.55;22.13;;;15.60;99.90;;;;;;5105915;28;20041;-84
2023/05/12 08:31:19;;;;;;;32.63;20.77;;;15.80;99.90;;;;;;5105805;28;20122;-84
2023/05/12 08:33:46;;;;;;;29.30;19.80;;;15.90;99.90;;;;;;5117768;28;20054;-84
2023/05/12 08:36:13;;;;;;;30.02;19.92;;;16.00;99.90;;;;;;5113158;28;20079;-84
2023/05/12 08:38:40;;;;;;;29.95;19.13;;;16.10;99.90;;;;;;5115952;28;20032;-84
2023/05/12 08:41:21;;;;;;;29.27;20.00;;;16.30;99.90;;;;;;5115695;28;20096;-84
2023/05/12 08:43:52;;;;;;;28.60;20.27;;;16.40;99.90;;;;;;5129123;28;20040;-81
2023/05/12 08:46:19;;;;;;;29.48;19.02;;;16.50;99.90;;;;;;5128964;28;20039;-81
2023/05/12 08:48:50;;;;;;;26.40;18.48;;;16.60;99.90;;;;;;5130763;28;20475;-81
2023/05/12 08:51:18;;;;;;;33.55;19.10;;;16.60;99.90;;;;;;5147289;28;20039;-82
2023/05/12 08:53:47;;;;;;;31.13;19.92;;;16.70;99.90;;;;;;5114950;28;20035;-82
2023/05/12 08:56:18;;;;;;;28.13;17.77;;;16.80;99.90;;;;;;5141996;28;20491;-83
2023/05/12 08:58:46;;;;;;;31.15;19.27;;;16.80;99.90;;;;;;5154562;28;20043;-82
2023/05/12 09:01:14;;;;;;;25.58;18.80;;;17.00;99.90;;;;;;5112235;28;20044;-82
2023/05/12 09:03:41;;;;;;;24.50;17.50;;;17.00;99.90;;;;;;5124755;28;20068;-82
2023/05/12 09:06:10;;;;;;;27.52;18.05;;;17.10;99.90;;;;;;5113015;28;20135;-82
2023/05/12 09:08:38;;;;;;;26.33;18.40;;;17.10;99.90;;;;;;5132563;28;20081;-82
2023/05/12 09:11:04;;;;;;;26.08;17.23;;;17.10;99.90;;;;;;5105524;27;20051;-82
2023/05/12 09:14:00;;;;;;;27.13;16.98;;;17.20;99.90;;;;;;5131319;28;20038;-82
2023/05/12 09:16:30;;;;;;;25.48;17.20;;;17.20;99.90;;;;;;5140906;28;20067;-82
2023/05/12 09:18:59;;;;;;;24.85;16.55;;;17.30;99.90;;;;;;5138366;27;20118;-82
2023/05/12 09:21:27;;;;;;;24.92;17.80;;;17.40;99.90;;;;;;5138030;28;20043;-82
2023/05/12 09:24:05;;;;;;;32.03;18.25;;;17.50;99.90;;;;;;5130817;27;20483;-82
2023/05/12 09:26:48;;;;;;;22.52;16.88;;;17.50;99.90;;;;;;5135211;27;20035;-85
2023/05/12 09:29:15;;;;;;;20.55;16.20;;;17.50;99.90;;;;;;5137360;27;20067;-84
2023/05/12 09:31:52;;;;;;;22.15;15.48;;;17.70;99.90;;;;;;5152701;27;20062;-84
2023/05/12 09:34:29;;;;;;;23.48;15.20;;;17.80;99.90;;;;;;5144053;27;20047;-84
2023/05/12 09:37:02;;;;;;;21.20;15.18;;;18.00;99.90;;;;;;5135356;28;20609;-85
2023/05/12 09:39:28;;;;;;;26.17;15.70;;;18.00;99.90;;;;;;5149934;27;20050;-84
2023/05/12 09:41:55;;;;;;;20.48;15.13;;;18.00;99.90;;;;;;5132025;27;20047;-84
2023/05/12 09:44:23;;;;;;;20.60;14.68;;;18.10;99.90;;;;;;5135385;27;20031;-85
2023/05/12 09:46:51;;;;;;;23.45;14.95;;;18.30;99.90;;;;;;5153697;27;20492;-84
2023/05/12 09:49:25;;;;;;;21.30;14.88;;;18.40;99.90;;;;;;5142580;27;20042;-84
2023/05/12 09:51:55;;;;;;;20.37;15.30;;;18.50;99.90;;;;;;5132039;28;20053;-84
2023/05/12 09:54:29;;;;;;;22.45;13.90;;;18.60;99.90;;;;;;5148747;28;20035;-84
2023/05/12 09:57:06;;;;;;;20.05;14.05;;;18.70;99.90;;;;;;5144761;28;20035;-81
2023/05/12 09:59:34;;;;;;;17.50;13.90;;;18.60;99.90;;;;;;5140122;28;20032;-80
2023/05/12 10:02:04;;;;;;;17.20;13.43;;;18.60;99.90;;;;;;5137260;27;20072;-82
2023/05/12 10:04:44;;;;;;;17.02;13.32;;;18.70;99.90;;;;;;5149677;27;20480;-84
2023/05/12 10:07:12;;;;;;;16.55;12.82;;;18.80;99.90;;;;;;5169049;27;20380;-83
2023/05/12 10:09:41;;;;;;;17.90;12.07;;;18.80;99.90;;;;;;5117308;27;20544;-83
2023/05/12 10:12:09;;;;;;;13.95;11.30;;;18.90;99.90;;;;;;5159712;27;20099;-83
2023/05/12 10:14:36;;;;;;;14.75;12.20;;;19.00;99.90;;;;;;5170808;27;20046;-84
2023/05/12 10:17:05;;;;;;;15.05;12.02;;;19.10;99.90;;;;;;5137363;27;20441;-84
2023/05/12 10:19:34;;;;;;;14.60;11.90;;;19.20;99.90;;;;;;5153682;27;20551;-83
2023/05/12 10:22:01;;;;;;;16.52;11.35;;;19.30;99.90;;;;;;5153250;27;20035;-83
2023/05/12 10:24:27;;;;;;;13.82;10.50;;;19.50;99.90;;;;;;5119155;27;20046;-83
2023/05/12 10:26:55;;;;;;;16.63;9.98;;;19.70;99.90;;;;;;5137072;27;20042;-83
2023/05/12 10:29:28;;;;;;;14.05;10.43;;;19.90;99.90;;;;;;5105944;28;20131;-83
2023/05/12 10:31:59;;;;;;;13.75;9.90;;;20.00;99.90;;;;;;5137138;27;20398;-84
2023/05/12 10:34:33;;;;;;;11.93;8.77;;;20.10;99.90;;;;;;5137309;27;20066;-84
2023/05/12 10:37:03;;;;;;;13.52;8.75;;;20.30;99.90;;;;;;5169977;27;20130;-82
2023/05/12 10:39:31;;;;;;;11.60;9.05;;;20.30;99.90;;;;;;5131704;28;20450;-83
2023/05/12 10:42:08;;;;;;;17.10;8.60;;;20.20;99.90;;;;;;5121412;27;20487;-84
2023/05/12 10:44:46;;;;;;;17.38;9.30;;;20.10;99.90;;;;;;5126825;28;20049;-84
2023/05/12 10:47:16;;;;;;;11.88;7.70;;;20.10;99.90;;;;;;5130433;28;20043;-85
2023/05/12 10:49:43;;;;;;;12.27;7.68;;;20.30;99.90;;;;;;5130580;28;20043;-85
2023/05/12 10:52:11;;;;;;;9.38;6.90;;;20.40;99.90;;;;;;5123571;28;20047;-84
2023/05/12 10:54:43;;;;;;;10.10;8.10;;;20.50;99.90;;;;;;5123410;28;20039;-85
2023/05/12 10:57:15;;;;;;;9.05;6.55;;;20.60;99.90;;;;;;5147204;28;20039;-85
2023/05/12 10:59:56;;;;;;;9.15;6.38;;;20.70;99.90;;;;;;5136119;28;20084;-85
2023/05/12 11:02:36;;;;;;;16.13;6.70;;;20.80;99.90;;;;;;5130200;28;20039;-85
2023/05/12 11:05:09;;;;;;;9.30;6.38;;;20.90;99.90;;;;;;5149041;27;20043;-85
2023/05/12 11:07:36;;;;;;;9.02;5.45;;;21.00;99.90;;;;;;5120606;28;20050;-85
2023/05/12 11:10:04;;;;;;;11.13;6.68;;;21.20;99.90;;;;;;5096828;28;20495;-84
2023/05/12 11:12:32;;;;;;;8.77;5.72;;;21.30;99.90;;;;;;5115646;28;20118;-85
2023/05/12 11:15:01;;;;;;;9.07;6.07;;;21.30;99.90;;;;;;5137553;28;20035;-85
2023/05/12 11:17:28;;;;;;;9.55;6.65;;;21.40;99.90;;;;;;5121440;28;20380;-85
2023/05/12 11:19:55;;;;;;;7.70;6.30;;;21.40;99.90;;;;;;5135553;27;20110;-85
2023/05/12 11:22:22;;;;;;;8.15;5.53;;;21.30;99.90;;;;;;5150728;27;20484;-86
2023/05/12 11:24:51;;;;;;;9.73;5.25;;;21.40;99.90;;;;;;5133580;27;20043;-85
2023/05/12 11:27:19;;;;;;;7.82;5.05;;;21.40;99.90;;;;;;5133976;27;20411;-84
2023/05/12 11:29:59;;;;;;;8.75;5.35;;;21.50;99.90;;;;;;5138391;28;20519;-85
2023/05/12 11:32:27;;;;;;;8.55;5.10;;;21.50;99.90;;;;;;5147033;27;20039;-85
2023/05/12 11:34:54;;;;;;;6.95;4.53;;;21.60;99.90;;;;;;5115906;27;20111;-85
2023/05/12 11:37:21;;;;;;;6.65;4.07;;;21.70;99.90;;;;;;5133861;27;20035;-85
2023/05/12 11:39:48;;;;;;;7.53;4.20;;;21.70;99.90;;;;;;5150782;27;20046;-85
2023/05/12 11:42:15;;;;;;;5.70;3.80;;;21.80;99.90;;;;;;5151132;27;20043;-85
2023/05/12 11:44:46;;;;;;;5.25;3.53;;;21.90;99.90;;;;;;5115527;27;20174;-85
2023/05/12 11:47:14;;;;;;;7.93;3.28;;;21.90;99.90;;;;;;5113889;28;20043;-84
2023/05/12 11:49:49;;;;;;;6.32;3.63;;;22.10;99.90;;;;;;5130302;28;20062;-85
2023/05/12 11:52:18;;;;;;;4.95;3.50;;;22.10;99.90;;;;;;5147244;28;20075;-85
2023/05/12 11:55:11;;;;;;;10.57;3.33;;;22.10;99.90;;;;;;5135062;27;20035;-85
2023/05/12 11:57:38;;;;;;;7.22;3.60;;;22.10;99.90;;;;;;5147686;28;20049;-85
2023/05/12 12:00:06;;;;;;;4.70;3.50;;;22.10;99.90;;;;;;5133428;28;20039;-84
2023/05/12 12:02:35;;;;;;;7.32;4.30;;;22.20;99.90;;;;;;5150396;28;20039;-85
2023/05/12 12:05:02;;;;;;;4.80;3.13;;;22.20;99.90;;;;;;5133714;28;20035;-85
2023/05/12 12:07:34;;;;;;;6.72;3.63;;;22.30;99.90;;;;;;5133835;28;20041;-85
2023/05/12 12:10:14;;;;;;;5.25;3.30;;;22.30;99.90;;;;;;5122206;28;20039;-85
2023/05/12 12:12:42;;;;;;;4.78;3.25;;;22.30;99.90;;;;;;5113164;28;20407;-84
2023/05/12 12:15:09;;;;;;;4.40;3.13;;;22.30;99.90;;;;;;5112925;28;20509;-85
2023/05/12 12:17:36;;;;;;;4.95;2.50;;;22.40;99.90;;;;;;5129798;28;20062;-85
2023/05/12 12:20:04;;;;;;;4.47;2.40;;;22.40;99.90;;;;;;5129639;28;20035;-84
2023/05/12 12:22:32;;;;;;;5.57;2.80;;;22.40;99.90;;;;;;5112847;28;20352;-85
2023/05/12 12:25:00;;;;;;;6.10;2.85;;;22.50;99.90;;;;;;5113062;28;20039;-84
2023/05/12 12:27:27;;;;;;;4.57;2.35;;;22.60;99.90;;;;;;5127998;28;20523;-85
2023/05/12 12:29:54;;;;;;;4.05;2.20;;;22.60;99.90;;;;;;5112086;28;20058;-85
2023/05/12 12:32:20;;;;;;;3.78;2.22;;;22.70;99.90;;;;;;5112752;28;20043;-84
2023/05/12 12:34:47;;;;;;;4.30;2.35;;;22.80;99.90;;;;;;5129699;28;20100;-84